Time;durP1;ratioP1;P1;durP2;ratioP2;P2;SDS_P1;SDS_P2;PMS_P1;PMS_P2;Temp;Humidity;BMP_temperature;BMP_pressure;BME280_temperature;BME280_humidity;BME280_pressure;Samples;Min_cycle;Max_cycle;Signal;HPM_P1;HPM_P2
2023/09/19 00:01:44;;;;;;;1.10;1.00;;;;;;;20.15;69.61;95070.09;5073025;28;20193;-84
2023/09/19 00:04:12;;;;;;;1.48;1.00;;;;;;;20.19;69.72;95073.03;5075023;28;20201;-84
2023/09/19 00:06:39;;;;;;;2.67;1.20;;;;;;;20.18;69.06;95056.53;5081815;28;20286;-85
2023/09/19 00:09:10;;;;;;;1.58;1.05;;;;;;;20.14;67.74;95016.25;5072842;28;20279;-83
2023/09/19 00:11:36;;;;;;;2.08;1.05;;;;;;;20.19;67.89;95013.69;5075923;28;20221;-84
2023/09/19 00:14:04;;;;;;;1.52;1.05;;;;;;;20.23;67.66;94995.66;5075969;28;20221;-84
2023/09/19 00:16:32;;;;;;;1.45;1.20;;;;;;;20.26;67.52;95003.78;5074864;28;20228;-84
2023/09/19 00:18:59;;;;;;;1.45;1.10;;;;;;;20.27;67.63;95007.97;5073132;28;20193;-84
2023/09/19 00:21:28;;;;;;;1.45;1.10;;;;;;;20.30;67.27;94998.84;5075323;28;20221;-84
2023/09/19 00:23:55;;;;;;;1.35;1.25;;;;;;;20.32;67.34;95015.84;5074687;28;20193;-84
2023/09/19 00:26:21;;;;;;;2.30;1.10;;;;;;;20.34;67.05;94994.69;5075551;28;20216;-84
2023/09/19 00:28:48;;;;;;;1.35;1.10;;;;;;;20.34;66.30;94985.03;5093580;28;20203;-84
2023/09/19 00:31:14;;;;;;;2.08;1.15;;;;;;;20.37;66.91;95006.50;5094028;28;20212;-84
2023/09/19 00:33:41;;;;;;;1.23;0.93;;;;;;;20.40;66.71;95000.78;5080215;28;20220;-84
2023/09/19 00:36:07;;;;;;;1.23;1.13;;;;;;;20.41;66.64;95007.56;5073563;28;20203;-85
2023/09/19 00:38:35;;;;;;;1.98;1.48;;;;;;;20.37;66.98;95011.75;5074386;28;20424;-84
2023/09/19 00:41:03;;;;;;;1.10;1.00;;;;;;;20.40;67.19;95019.09;5084218;28;20217;-84
2023/09/19 00:43:29;;;;;;;2.10;1.10;;;;;;;20.39;67.72;95038.44;5088257;28;20188;-84
2023/09/19 00:45:56;;;;;;;1.27;1.10;;;;;;;20.38;68.09;95055.94;5085020;28;20201;-84
2023/09/19 00:48:27;;;;;;;1.70;1.50;;;;;;;20.27;68.44;95073.34;5099712;28;20200;-84
2023/09/19 00:50:54;;;;;;;1.85;1.10;;;;;;;20.26;68.63;95084.81;5076289;28;20228;-84
2023/09/19 00:53:27;;;;;;;1.35;1.10;;;;;;;20.24;68.99;95086.91;5079129;28;20197;-85
2023/09/19 00:55:56;;;;;;;2.28;1.10;;;;;;;20.15;69.31;95096.25;5080045;28;20535;-84
2023/09/19 00:58:22;;;;;;;1.35;1.00;;;;;;;20.23;69.38;95102.81;5097539;28;20219;-85
2023/09/19 01:00:50;;;;;;;1.35;1.15;;;;;;;20.25;69.25;95125.09;5087816;28;20216;-84
2023/09/19 01:03:18;;;;;;;1.42;1.13;;;;;;;20.26;69.68;95136.31;5073866;28;20216;-84
2023/09/19 01:05:45;;;;;;;1.17;1.08;;;;;;;20.25;70.13;95134.75;5077665;28;20666;-84
2023/09/19 01:08:12;;;;;;;1.13;1.02;;;;;;;20.18;70.25;95161.09;5077887;28;20228;-84
2023/09/19 01:10:51;;;;;;;4.45;1.27;;;;;;;20.15;70.94;95168.66;5086346;28;20270;-84
2023/09/19 01:13:27;;;;;;;1.20;1.08;;;;;;;20.14;71.38;95185.38;5077522;28;20235;-84
2023/09/19 01:16:04;;;;;;;1.30;1.20;;;;;;;20.18;71.28;95183.84;5085290;28;20487;-85
2023/09/19 01:18:41;;;;;;;2.47;1.27;;;;;;;20.10;71.20;95190.28;5076016;28;20279;-84
2023/09/19 01:21:16;;;;;;;1.20;1.10;;;;;;;20.05;71.64;95200.69;5094622;28;20216;-84
2023/09/19 01:24:07;;;;;;;2.15;1.10;;;;;;;20.01;72.00;95204.84;5079035;28;20677;-84
2023/09/19 01:26:56;;;;;;;1.20;1.10;;;;;;;19.94;72.59;95217.28;5080198;28;20219;-84
2023/09/19 01:29:39;;;;;;;2.03;1.20;;;;;;;20.00;72.45;95218.94;5078451;28;20193;-84
2023/09/19 01:32:09;;;;;;;1.20;1.00;;;;;;;19.91;73.41;95239.47;5087835;28;20196;-84
2023/09/19 01:34:48;;;;;;;2.45;1.20;;;;;;;19.92;73.27;95251.50;5096956;28;20687;-85
2023/09/19 01:37:19;;;;;;;1.50;1.08;;;;;;;19.92;73.22;95250.72;5074029;28;20285;-85
2023/09/19 01:39:48;;;;;;;1.23;1.10;;;;;;;19.93;72.63;95232.19;5076874;28;20621;-85
2023/09/19 01:42:23;;;;;;;2.13;1.30;;;;;;;19.89;72.72;95230.28;5078870;28;20311;-84
2023/09/19 01:44:56;;;;;;;1.95;1.13;;;;;;;19.88;73.01;95233.94;5077581;28;20196;-84
2023/09/19 01:47:34;;;;;;;1.70;1.20;;;;;;;19.84;72.52;95233.63;5090071;28;20188;-84
2023/09/19 01:50:12;;;;;;;2.13;1.25;;;;;;;19.80;73.08;95243.00;5088313;28;20215;-85
2023/09/19 01:52:46;;;;;;;2.67;1.13;;;;;;;19.80;72.54;95243.00;5095394;28;20657;-84
2023/09/19 01:55:17;;;;;;;2.17;1.30;;;;;;;19.89;72.36;95238.13;5083711;28;20231;-84
2023/09/19 01:57:52;;;;;;;1.80;1.23;;;;;;;19.88;72.36;95231.31;5078145;28;20247;-84
2023/09/19 02:00:21;;;;;;;2.42;1.30;;;;;;;19.84;72.21;95227.59;5082786;28;20325;-84
2023/09/19 02:02:52;;;;;;;3.70;1.20;;;;;;;19.87;71.85;95217.47;5085362;28;20210;-85
2023/09/19 02:05:23;;;;;;;1.40;1.10;;;;;;;19.91;71.54;95209.94;5084447;28;20677;-84
2023/09/19 02:07:50;;;;;;;1.48;1.38;;;;;;;19.94;71.28;95199.00;5077551;28;21031;-84
2023/09/19 02:10:17;;;;;;;1.13;1.00;;;;;;;19.91;70.85;95200.28;5076010;28;20227;-84
2023/09/19 02:12:43;;;;;;;1.15;1.10;;;;;;;19.96;70.94;95197.72;5076931;28;20791;-84
2023/09/19 02:15:10;;;;;;;2.85;1.48;;;;;;;19.93;70.83;95192.97;5092680;28;20204;-84
2023/09/19 02:17:37;;;;;;;1.35;1.00;;;;;;;19.97;71.01;95190.69;5070184;28;20217;-85
2023/09/19 02:20:13;;;;;;;1.20;1.13;;;;;;;20.02;70.80;95188.88;5076016;28;20219;-85
2023/09/19 02:22:40;;;;;;;1.70;1.30;;;;;;;20.01;70.99;95189.16;5075857;28;20200;-85
2023/09/19 02:25:07;;;;;;;1.48;1.10;;;;;;;20.02;70.93;95188.09;5091221;28;20200;-85
2023/09/19 02:27:33;;;;;;;1.45;1.30;;;;;;;20.05;70.50;95182.38;5083370;28;20622;-84
2023/09/19 02:30:02;;;;;;;2.88;1.10;;;;;;;20.04;70.57;95193.09;5073981;28;20231;-84
2023/09/19 02:32:29;;;;;;;0.90;0.90;;;;;;;20.05;70.58;95185.00;5091067;28;20204;-84
2023/09/19 02:34:57;;;;;;;1.20;1.10;;;;;;;20.00;70.46;95182.34;5082684;28;20220;-84
2023/09/19 02:37:25;;;;;;;2.35;1.20;;;;;;;19.92;70.25;95185.38;5083036;28;20223;-85
2023/09/19 02:39:52;;;;;;;1.40;1.17;;;;;;;19.90;70.49;95187.44;5068026;28;20215;-85
2023/09/19 02:42:18;;;;;;;2.63;1.45;;;;;;;19.86;70.91;95196.81;5078172;28;20363;-84
2023/09/19 02:44:46;;;;;;;1.50;1.13;;;;;;;19.89;70.85;95194.50;5080975;28;20283;-84
2023/09/19 02:47:14;;;;;;;3.67;1.10;;;;;;;19.87;70.99;95201.00;5089658;28;20596;-85
2023/09/19 02:49:42;;;;;;;1.40;1.30;;;;;;;19.86;71.10;95202.81;5095111;28;20267;-83
2023/09/19 02:52:08;;;;;;;1.60;1.10;;;;;;;19.88;71.02;95199.97;5082450;28;20251;-85
2023/09/19 02:54:36;;;;;;;1.80;1.20;;;;;;;19.84;71.13;95223.16;5081831;28;20199;-84
2023/09/19 02:57:06;;;;;;;1.30;1.15;;;;;;;19.85;71.30;95221.34;5067601;28;20221;-84
2023/09/19 02:59:33;;;;;;;2.13;1.23;;;;;;;19.87;71.50;95221.91;5073650;28;20284;-84
2023/09/19 03:02:00;;;;;;;2.95;1.20;;;;;;;19.85;71.43;95222.13;5076135;28;20208;-84
2023/09/19 03:04:27;;;;;;;2.30;1.35;;;;;;;19.86;71.30;95221.09;5090232;28;20204;-85
2023/09/19 03:06:58;;;;;;;1.20;1.10;;;;;;;19.85;71.24;95219.53;5095298;28;20203;-84
2023/09/19 03:09:25;;;;;;;1.42;1.30;;;;;;;19.85;71.27;95216.91;5095693;28;20201;-84
2023/09/19 03:11:54;;;;;;;1.40;1.20;;;;;;;19.81;71.37;95215.06;5087182;28;20199;-84
2023/09/19 03:14:20;;;;;;;3.80;1.40;;;;;;;19.78;71.43;95215.53;5088770;28;20216;-84
2023/09/19 03:16:47;;;;;;;1.33;1.23;;;;;;;19.69;70.58;95203.91;5075526;28;20216;-84
2023/09/19 03:19:15;;;;;;;2.05;1.50;;;;;;;19.67;71.02;95202.34;5091305;28;20191;-84
2023/09/19 03:21:41;;;;;;;2.00;1.20;;;;;;;19.69;70.98;95206.53;5094494;28;20196;-84
2023/09/19 03:24:08;;;;;;;1.80;1.35;;;;;;;19.64;70.82;95199.41;5083205;28;20219;-84
2023/09/19 03:26:34;;;;;;;1.52;1.13;;;;;;;19.66;70.79;95210.41;5074752;28;20264;-85
2023/09/19 03:29:06;;;;;;;2.47;1.50;;;;;;;19.62;71.08;95214.56;5082445;28;20196;-85
2023/09/19 03:31:32;;;;;;;1.98;1.23;;;;;;;19.56;70.86;95198.03;5078585;28;20243;-84
2023/09/19 03:33:59;;;;;;;1.50;1.38;;;;;;;19.59;70.46;95201.97;5075423;28;20278;-84
2023/09/19 03:36:28;;;;;;;1.30;1.20;;;;;;;19.57;70.70;95202.22;5066008;28;20490;-83
2023/09/19 03:38:54;;;;;;;1.42;1.30;;;;;;;19.60;70.68;95206.97;5074809;28;20227;-85
2023/09/19 03:41:20;;;;;;;2.42;1.17;;;;;;;19.58;71.00;95208.22;5082821;28;20280;-84
2023/09/19 03:43:47;;;;;;;1.02;0.95;;;;;;;19.59;70.81;95215.03;5086944;28;20199;-84
2023/09/19 03:46:15;;;;;;;1.35;1.10;;;;;;;19.50;70.98;95201.59;5082618;28;20223;-83
2023/09/19 03:48:42;;;;;;;1.35;1.25;;;;;;;19.54;70.81;95213.16;5081254;28;20200;-84
2023/09/19 03:51:09;;;;;;;1.92;1.30;;;;;;;19.60;70.64;95217.41;5090664;28;20731;-84
2023/09/19 03:53:35;;;;;;;1.55;1.17;;;;;;;19.54;70.93;95220.97;5093759;28;20188;-85
2023/09/19 03:56:02;;;;;;;1.35;1.25;;;;;;;19.54;70.89;95220.19;5093425;28;20192;-84
2023/09/19 03:58:29;;;;;;;1.30;1.20;;;;;;;19.60;70.66;95216.63;5092381;28;20216;-84
2023/09/19 04:00:56;;;;;;;1.80;1.15;;;;;;;19.64;70.49;95223.72;5081022;28;20409;-84
2023/09/19 04:03:28;;;;;;;1.52;1.30;;;;;;;19.64;70.87;95231.53;5077239;28;20205;-83
2023/09/19 04:05:55;;;;;;;2.00;1.38;;;;;;;19.61;71.55;95237.28;5075813;28;20233;-84
2023/09/19 04:08:21;;;;;;;2.30;1.10;;;;;;;19.61;70.67;95224.22;5088607;28;20192;-83
2023/09/19 04:10:47;;;;;;;3.38;1.40;;;;;;;19.59;70.96;95230.72;5094115;28;20219;-84
2023/09/19 04:13:15;;;;;;;1.45;1.35;;;;;;;19.57;71.19;95236.16;5077117;28;20227;-85
2023/09/19 04:15:41;;;;;;;1.40;1.23;;;;;;;19.60;71.11;95243.53;5076351;28;20662;-85
2023/09/19 04:18:08;;;;;;;1.65;1.38;;;;;;;19.56;71.36;95250.25;5095113;28;20742;-84
2023/09/19 04:20:36;;;;;;;2.28;1.30;;;;;;;19.52;71.39;95256.19;5085634;28;20227;-84
2023/09/19 04:23:02;;;;;;;3.17;1.20;;;;;;;19.48;71.36;95255.06;5079826;28;20197;-85
2023/09/19 04:25:29;;;;;;;2.35;1.30;;;;;;;19.45;71.53;95250.31;5079345;28;20223;-84
2023/09/19 04:27:55;;;;;;;1.25;1.15;;;;;;;19.48;71.47;95255.84;5082693;28;20192;-85
2023/09/19 04:30:21;;;;;;;4.63;1.75;;;;;;;19.50;71.51;95261.66;5081147;28;20732;-85
2023/09/19 04:32:50;;;;;;;1.30;1.20;;;;;;;19.48;71.51;95262.88;5089686;28;20201;-85
2023/09/19 04:35:17;;;;;;;2.42;1.10;;;;;;;19.52;71.28;95264.81;5093113;28;20734;-84
2023/09/19 04:37:45;;;;;;;1.45;1.23;;;;;;;19.48;71.63;95270.72;5076282;28;20232;-84
2023/09/19 04:40:12;;;;;;;3.70;1.38;;;;;;;19.49;71.61;95259.25;5079298;28;20227;-84
2023/09/19 04:42:40;;;;;;;4.13;1.52;;;;;;;19.40;71.40;95277.16;5076254;28;20185;-84
2023/09/19 04:45:09;;;;;;;1.92;1.30;;;;;;;19.30;71.58;95277.00;5076130;28;20204;-83
2023/09/19 04:47:35;;;;;;;1.67;1.30;;;;;;;19.20;71.88;95277.63;5082520;28;20730;-84
2023/09/19 04:50:05;;;;;;;1.27;1.17;;;;;;;19.27;72.03;95290.50;5076333;28;20216;-84
2023/09/19 04:52:32;;;;;;;1.42;1.30;;;;;;;19.31;71.88;95296.84;5074148;28;20211;-84
2023/09/19 04:54:59;;;;;;;1.95;1.50;;;;;;;19.32;71.93;95293.22;5076501;28;20577;-84
2023/09/19 04:57:26;;;;;;;1.85;1.33;;;;;;;19.40;71.33;95294.63;5074191;28;20201;-84
2023/09/19 04:59:53;;;;;;;1.65;1.20;;;;;;;19.38;71.24;95278.41;5077871;28;20324;-84
2023/09/19 05:02:20;;;;;;;1.67;1.30;;;;;;;19.45;71.21;95289.47;5077450;28;20865;-84
2023/09/19 05:04:47;;;;;;;1.20;1.10;;;;;;;19.43;71.20;95294.97;5076994;28;20208;-84
2023/09/19 05:07:17;;;;;;;3.08;1.42;;;;;;;19.37;71.04;95298.50;5079828;28;20204;-84
2023/09/19 05:09:45;;;;;;;1.58;1.40;;;;;;;19.33;71.33;95300.81;5076458;28;20216;-84
2023/09/19 05:12:13;;;;;;;2.00;1.38;;;;;;;19.37;71.45;95308.97;5077762;28;20212;-84
2023/09/19 05:14:40;;;;;;;1.83;1.08;;;;;;;19.41;71.46;95314.50;5077168;28;20201;-84
2023/09/19 05:17:07;;;;;;;2.13;1.20;;;;;;;19.42;70.75;95303.03;5077577;28;20196;-84
2023/09/19 05:19:35;;;;;;;2.70;1.73;;;;;;;19.44;70.82;95303.56;5078167;28;20290;-85
2023/09/19 05:22:01;;;;;;;4.47;4.00;;;;;;;19.44;70.77;95304.34;5077804;28;20670;-84
2023/09/19 05:24:27;;;;;;;2.58;2.28;;;;;;;19.45;70.71;95312.97;5076445;28;20211;-85
2023/09/19 05:26:56;;;;;;;7.03;6.32;;;;;;;19.44;71.16;95317.41;5077628;28;20573;-84
2023/09/19 05:29:24;;;;;;;3.47;2.90;;;;;;;19.44;70.54;95308.78;5058958;28;20197;-84
2023/09/19 05:31:54;;;;;;;1.45;1.35;;;;;;;19.40;71.55;95337.22;5082010;28;20199;-84
2023/09/19 05:34:21;;;;;;;2.15;1.50;;;;;;;19.38;70.97;95330.63;5090237;28;20688;-84
2023/09/19 05:36:51;;;;;;;1.50;1.40;;;;;;;19.30;70.65;95311.72;5097086;28;20201;-84
2023/09/19 05:39:18;;;;;;;1.73;1.10;;;;;;;19.29;71.04;95332.84;5097290;28;20224;-83
2023/09/19 05:41:45;;;;;;;2.05;1.30;;;;;;;19.35;70.72;95334.50;5080182;28;20197;-84
2023/09/19 05:44:12;;;;;;;1.50;1.30;;;;;;;19.30;70.83;95324.78;5078130;28;20264;-84
2023/09/19 05:46:40;;;;;;;2.03;1.30;;;;;;;19.32;70.95;95334.97;5078706;28;20654;-84
2023/09/19 05:49:07;;;;;;;2.65;1.45;;;;;;;19.36;71.14;95341.31;5078452;28;20204;-84
2023/09/19 05:51:33;;;;;;;4.03;1.20;;;;;;;19.36;70.66;95328.25;5077992;28;20795;-84
2023/09/19 05:53:59;;;;;;;3.03;1.23;;;;;;;19.39;70.59;95325.19;5078436;28;20673;-84
2023/09/19 05:56:27;;;;;;;1.65;1.40;;;;;;;19.37;70.70;95337.69;5077289;28;20216;-83
2023/09/19 05:58:55;;;;;;;3.65;1.48;;;;;;;19.47;70.85;95343.03;5077969;28;20224;-84
2023/09/19 06:01:22;;;;;;;1.85;1.50;;;;;;;19.56;70.50;95338.25;5078313;28;20217;-84
2023/09/19 06:03:50;;;;;;;1.98;1.20;;;;;;;19.54;69.89;95324.66;5077716;28;20204;-84
2023/09/19 06:06:17;;;;;;;2.53;1.30;;;;;;;19.60;70.09;95331.53;5078417;28;20205;-84
2023/09/19 06:08:44;;;;;;;4.25;3.45;;;;;;;19.63;69.76;95324.00;5077487;28;20196;-84
2023/09/19 06:11:11;;;;;;;3.20;2.90;;;;;;;19.60;69.81;95327.09;5077406;28;20229;-84
2023/09/19 06:13:39;;;;;;;2.13;1.63;;;;;;;19.62;70.23;95332.88;5075533;28;20211;-84
2023/09/19 06:16:05;;;;;;;1.42;1.20;;;;;;;19.64;70.25;95338.63;5077322;28;20303;-84
2023/09/19 06:18:33;;;;;;;1.65;1.30;;;;;;;19.66;70.09;95326.13;5077299;28;20228;-84
2023/09/19 06:21:07;;;;;;;1.30;1.15;;;;;;;19.66;70.03;95328.75;5077394;28;20228;-84
2023/09/19 06:23:34;;;;;;;1.10;1.00;;;;;;;19.64;69.88;95324.78;5076599;28;20200;-84
2023/09/19 06:26:00;;;;;;;2.42;1.40;;;;;;;19.61;70.07;95346.97;5077403;28;20264;-83
2023/09/19 06:28:28;;;;;;;1.80;1.20;;;;;;;19.66;69.98;95335.78;5083502;28;20227;-84
2023/09/19 06:30:54;;;;;;;1.38;1.20;;;;;;;19.56;70.04;95339.06;5077130;28;20224;-84
2023/09/19 06:33:21;;;;;;;2.78;1.70;;;;;;;19.57;70.29;95348.47;5075349;28;20235;-84
2023/09/19 06:35:48;;;;;;;5.43;4.93;;;;;;;19.60;70.08;95341.97;5076651;28;20227;-84
2023/09/19 06:38:19;;;;;;;1.50;1.40;;;;;;;19.58;69.89;95329.16;5073962;28;20227;-84
2023/09/19 06:40:45;;;;;;;3.25;1.25;;;;;;;19.64;70.14;95353.50;5075628;28;20220;-84
2023/09/19 06:43:12;;;;;;;1.45;1.30;;;;;;;19.72;69.76;95345.28;5075535;28;20219;-84
2023/09/19 06:45:38;;;;;;;1.60;1.10;;;;;;;19.85;69.67;95349.38;5073691;28;20208;-84
2023/09/19 06:48:06;;;;;;;3.03;1.02;;;;;;;20.02;69.43;95347.53;5075477;28;20216;-83
2023/09/19 06:50:34;;;;;;;1.98;1.20;;;;;;;19.92;69.46;95327.28;5076442;28;20220;-84
2023/09/19 06:53:02;;;;;;;1.27;1.17;;;;;;;19.98;69.11;95341.22;5076656;28;20292;-84
2023/09/19 06:55:30;;;;;;;1.27;1.17;;;;;;;20.41;68.23;95313.53;5076051;28;20205;-84
2023/09/19 06:57:57;;;;;;;1.20;1.10;;;;;;;20.57;66.75;95268.22;5075337;28;20797;-84
2023/09/19 07:00:25;;;;;;;1.70;1.13;;;;;;;20.89;66.46;95263.00;5075548;28;20216;-84
2023/09/19 07:03:03;;;;;;;1.45;1.20;;;;;;;20.81;66.26;95251.16;5073136;28;20261;-84
2023/09/19 07:05:31;;;;;;;3.40;1.13;;;;;;;20.54;66.78;95274.72;5074978;28;20253;-84
2023/09/19 07:07:58;;;;;;;3.10;1.10;;;;;;;20.35;68.61;95326.53;5074339;28;20201;-85
2023/09/19 07:10:25;;;;;;;1.40;1.20;;;;;;;20.13;68.73;95335.41;5073947;28;20270;-85
2023/09/19 07:13:00;;;;;;;1.20;0.98;;;;;;;19.96;69.13;95351.13;5073122;28;20248;-84
2023/09/19 07:15:27;;;;;;;2.53;1.08;;;;;;;19.89;70.18;95385.25;5071797;28;20227;-84
2023/09/19 07:17:54;;;;;;;1.77;1.08;;;;;;;19.87;69.84;95381.28;5068534;28;20209;-84
2023/09/19 07:20:20;;;;;;;1.85;1.20;;;;;;;19.82;69.96;95389.06;5072220;28;20725;-84
2023/09/19 07:22:47;;;;;;;1.45;1.05;;;;;;;19.86;69.37;95383.13;5072836;28;20196;-84
2023/09/19 07:25:14;;;;;;;1.40;1.05;;;;;;;19.84;69.69;95387.78;5082851;28;20216;-85
2023/09/19 07:27:41;;;;;;;2.20;1.13;;;;;;;19.85;69.79;95376.31;5092487;28;20200;-84
2023/09/19 07:30:11;;;;;;;1.20;1.10;;;;;;;20.00;69.77;95389.63;5091437;28;20216;-85
2023/09/19 07:32:38;;;;;;;2.35;1.23;;;;;;;20.23;69.27;95380.75;5092483;28;20212;-85
2023/09/19 07:35:06;;;;;;;2.80;1.08;;;;;;;20.34;68.49;95356.34;5071476;28;20255;-84
2023/09/19 07:37:33;;;;;;;2.28;1.10;;;;;;;20.47;68.24;95352.59;5071257;28;20219;-85
2023/09/19 07:40:00;;;;;;;1.95;1.77;;;;;;;20.52;68.26;95347.41;5055731;28;20251;-84
2023/09/19 07:42:26;;;;;;;5.53;3.45;;;;;;;20.64;68.19;95350.69;5071160;28;20197;-85
2023/09/19 07:44:53;;;;;;;2.53;1.20;;;;;;;20.62;67.86;95331.03;5072025;28;20215;-85
2023/09/19 07:47:22;;;;;;;1.38;1.10;;;;;;;20.57;67.95;95346.69;5071729;28;20204;-85
2023/09/19 07:49:48;;;;;;;1.85;1.30;;;;;;;20.66;67.78;95348.63;5071715;28;20224;-85
2023/09/19 07:52:15;;;;;;;1.08;0.98;;;;;;;20.83;67.76;95337.28;5075342;28;20201;-85
2023/09/19 07:54:43;;;;;;;2.13;1.20;;;;;;;21.11;66.73;95326.56;5075267;28;20212;-84
2023/09/19 07:57:10;;;;;;;1.48;1.38;;;;;;;21.25;66.42;95311.25;5076025;28;20264;-85
2023/09/19 07:59:38;;;;;;;2.08;1.10;;;;;;;21.76;64.76;95259.19;5076811;28;20224;-85
2023/09/19 08:02:05;;;;;;;1.00;0.90;;;;;;;21.95;64.15;95234.91;5076839;28;20200;-84
2023/09/19 08:04:33;;;;;;;1.67;1.30;;;;;;;21.72;64.29;95219.63;5077644;28;20205;-85
2023/09/19 08:07:03;;;;;;;1.15;1.00;;;;;;;21.53;65.44;95263.81;5075944;28;20211;-84
2023/09/19 08:09:33;;;;;;;1.63;1.10;;;;;;;21.28;65.33;95280.13;5077674;28;20211;-84
2023/09/19 08:12:01;;;;;;;4.97;4.55;;;;;;;21.11;66.31;95300.38;5077986;28;20397;-85
2023/09/19 08:14:29;;;;;;;2.72;1.98;;;;;;;21.09;67.13;95323.41;5077860;28;20215;-85
2023/09/19 08:16:57;;;;;;;1.33;1.10;;;;;;;20.94;66.51;95323.25;5077474;28;20677;-84
2023/09/19 08:19:28;;;;;;;0.82;0.82;;;;;;;20.85;66.84;95311.66;5083196;28;20226;-84
2023/09/19 08:21:58;;;;;;;4.13;1.05;;;;;;;21.14;66.24;95312.19;5081796;28;20201;-84
2023/09/19 08:24:25;;;;;;;2.45;1.05;;;;;;;21.76;64.81;95272.28;5077161;28;20205;-83
2023/09/19 08:26:51;;;;;;;1.20;1.10;;;;;;;22.18;62.46;95181.25;5058474;28;20202;-85
2023/09/19 08:29:18;;;;;;;1.10;1.00;;;;;;;22.59;61.31;95153.25;5056844;28;20261;-85
2023/09/19 08:31:44;;;;;;;1.60;1.20;;;;;;;23.10;59.95;95108.59;5055930;28;20201;-84
2023/09/19 08:34:11;;;;;;;1.70;1.13;;;;;;;23.61;59.08;95069.84;5061887;28;20231;-85
2023/09/19 08:36:38;;;;;;;1.52;1.05;;;;;;;23.74;57.33;94990.38;5076057;28;20204;-84
2023/09/19 08:39:06;;;;;;;1.80;0.90;;;;;;;23.84;56.59;94959.81;5073249;28;20288;-85
2023/09/19 08:41:32;;;;;;;1.10;1.00;;;;;;;24.09;55.69;94906.97;5075979;28;20232;-84
2023/09/19 08:44:01;;;;;;;2.15;1.60;;;;;;;24.24;55.19;94885.84;5077003;28;20204;-84
2023/09/19 08:46:31;;;;;;;1.10;1.00;;;;;;;24.17;54.34;94840.63;5076602;28;20237;-84
2023/09/19 08:49:04;;;;;;;1.48;1.10;;;;;;;24.21;54.42;94849.53;5077656;28;20727;-85
2023/09/19 08:51:40;;;;;;;2.00;0.90;;;;;;;24.64;54.04;94833.78;5077483;28;20235;-84
2023/09/19 08:54:09;;;;;;;0.90;0.90;;;;;;;24.69;53.43;94799.50;5076451;28;20295;-85
2023/09/19 08:56:39;;;;;;;4.05;1.10;;;;;;;24.39;54.02;94832.25;5077218;28;20712;-84
2023/09/19 08:59:07;;;;;;;1.30;1.00;;;;;;;24.19;54.07;94814.03;5076678;28;20246;-84
2023/09/19 09:01:34;;;;;;;1.95;1.10;;;;;;;23.80;56.02;94895.69;5076288;28;20213;-85
2023/09/19 09:04:03;;;;;;;1.52;1.10;;;;;;;23.39;56.55;94949.31;5076551;28;20208;-84
2023/09/19 09:06:32;;;;;;;1.23;1.00;;;;;;;22.97;57.15;94957.66;5076707;28;20967;-84
2023/09/19 09:08:59;;;;;;;1.05;0.95;;;;;;;22.61;57.95;94971.94;5077735;28;20204;-84
2023/09/19 09:11:28;;;;;;;1.30;1.08;;;;;;;23.11;56.62;94967.56;5076483;28;20217;-84
2023/09/19 09:13:54;;;;;;;2.03;1.00;;;;;;;23.08;55.76;94904.06;5076350;28;20946;-84
2023/09/19 09:16:20;;;;;;;1.27;1.17;;;;;;;22.86;56.03;94916.75;5084314;28;20688;-84
2023/09/19 09:18:52;;;;;;;2.08;1.00;;;;;;;22.64;56.17;94922.31;5075723;28;20207;-84
2023/09/19 09:21:21;;;;;;;1.17;1.05;;;;;;;22.44;56.91;94955.69;5076943;28;20228;-84
2023/09/19 09:23:48;;;;;;;0.98;0.93;;;;;;;22.85;56.26;94920.44;5077002;28;20196;-83
2023/09/19 09:26:14;;;;;;;1.80;1.08;;;;;;;22.95;56.11;94890.72;5077110;28;20246;-84
2023/09/19 09:28:49;;;;;;;1.60;1.20;;;;;;;22.84;55.31;94866.38;5079360;28;20204;-84
2023/09/19 09:31:26;;;;;;;1.60;1.20;;;;;;;23.21;54.36;94846.72;5077011;28;20266;-85
2023/09/19 09:33:56;;;;;;;1.50;1.00;;;;;;;23.49;54.71;94845.16;5071637;28;20232;-85
2023/09/19 09:36:35;;;;;;;2.42;1.10;;;;;;;23.73;53.36;94796.09;5075880;28;20208;-83
2023/09/19 09:39:15;;;;;;;1.42;1.10;;;;;;;23.44;53.16;94772.44;5076491;28;20204;-84
2023/09/19 09:41:43;;;;;;;2.35;1.05;;;;;;;23.51;53.73;94782.63;5078184;28;20649;-84
2023/09/19 09:44:17;;;;;;;1.77;1.20;;;;;;;23.83;52.97;94779.47;5076318;28;20200;-84
2023/09/19 09:49:40;;;;;;;1.13;1.02;;;;;;;24.51;52.82;94768.69;5034047;28;20217;-83
2023/09/19 09:52:09;;;;;;;5.50;1.42;;;;;;;24.81;52.17;94739.31;5065527;28;20254;-83
2023/09/19 09:54:37;;;;;;;0.90;0.90;;;;;;;24.90;50.61;94673.59;5075936;28;20261;-84
2023/09/19 09:57:14;;;;;;;1.60;1.02;;;;;;;24.73;50.96;94700.44;5076895;28;20727;-84
2023/09/19 09:59:48;;;;;;;1.67;1.33;;;;;;;24.11;52.79;94754.94;5074273;28;20224;-84
2023/09/19 10:02:20;;;;;;;1.30;1.20;;;;;;;23.78;52.18;94727.72;5076943;28;20215;-84
2023/09/19 10:04:54;;;;;;;2.92;0.93;;;;;;;23.50;53.04;94778.41;5077106;28;20239;-84
2023/09/19 10:07:31;;;;;;;3.30;1.40;;;;;;;23.47;53.60;94816.56;5077317;28;20212;-84
2023/09/19 10:10:09;;;;;;;1.45;1.10;;;;;;;23.63;53.70;94825.13;5077369;28;20227;-84
2023/09/19 10:12:39;;;;;;;2.30;2.10;;;;;;;23.61;53.29;94788.59;5082951;28;20204;-83
2023/09/19 10:15:10;;;;;;;2.20;1.33;;;;;;;23.65;53.68;94812.50;5078745;28;20201;-85
2023/09/19 10:17:37;;;;;;;1.33;1.10;;;;;;;23.74;52.41;94772.16;5076932;28;20224;-84
2023/09/19 10:20:18;;;;;;;1.23;1.00;;;;;;;23.69;52.53;94759.06;5077371;28;20235;-84
2023/09/19 10:22:56;;;;;;;1.52;1.10;;;;;;;24.03;52.12;94747.69;5071636;28;20227;-84
2023/09/19 10:25:25;;;;;;;2.17;1.30;;;;;;;24.14;52.01;94753.59;5057171;28;20201;-84
2023/09/19 10:27:53;;;;;;;1.20;1.10;;;;;;;24.17;52.33;94777.50;5072249;28;20228;-84
2023/09/19 10:30:23;;;;;;;1.55;1.13;;;;;;;24.08;51.66;94729.19;5075199;28;20593;-84
2023/09/19 10:32:58;;;;;;;4.00;3.35;;;;;;;24.10;52.06;94737.59;5074839;28;20216;-84
2023/09/19 10:35:25;;;;;;;2.20;1.90;;;;;;;23.95;52.50;94761.44;5074835;28;20614;-84
2023/09/19 10:37:55;;;;;;;2.03;1.45;;;;;;;23.73;52.74;94767.19;5074643;28;20209;-84
2023/09/19 10:40:26;;;;;;;1.20;1.10;;;;;;;23.39;53.42;94786.41;5074733;28;20236;-84
2023/09/19 10:42:55;;;;;;;1.60;1.10;;;;;;;23.18;53.61;94810.47;5074777;28;20694;-83
2023/09/19 10:45:26;;;;;;;1.20;1.10;;;;;;;23.17;53.31;94801.03;5074447;28;20230;-83
2023/09/19 10:47:52;;;;;;;2.15;1.30;;;;;;;23.22;53.57;94822.78;5073709;28;20681;-84
2023/09/19 10:50:21;;;;;;;1.50;1.15;;;;;;;23.41;53.71;94830.78;5075768;28;20231;-83
2023/09/19 10:52:50;;;;;;;1.20;1.10;;;;;;;23.50;53.61;94818.63;5075840;28;20212;-84
2023/09/19 10:55:19;;;;;;;2.17;1.30;;;;;;;23.70;52.55;94776.41;5074897;28;20201;-85
2023/09/19 10:57:46;;;;;;;1.98;1.10;;;;;;;23.84;52.32;94781.81;5072711;28;20203;-84
2023/09/19 11:00:23;;;;;;;2.65;1.45;;;;;;;23.94;52.05;94763.28;5074196;28;20224;-84
2023/09/19 11:03:22;;;;;;;3.20;2.38;;;;;;;23.99;51.56;94733.53;5073406;28;20204;-84
2023/09/19 11:06:13;;;;;;;2.60;1.48;;;;;;;24.09;52.07;94775.47;5052225;28;20234;-84
2023/09/19 11:08:56;;;;;;;1.38;1.27;;;;;;;24.15;51.94;94787.50;5083269;28;20847;-85
2023/09/19 11:11:50;;;;;;;2.13;1.20;;;;;;;24.14;51.12;94698.34;5082542;28;20212;-84
2023/09/19 11:14:42;;;;;;;1.58;1.30;;;;;;;23.98;49.15;94563.66;5095120;28;20665;-85
2023/09/19 11:17:45;;;;;;;1.83;1.02;;;;;;;24.10;48.97;94569.25;5075253;28;20724;-85
2023/09/19 11:20:25;;;;;;;1.10;1.00;;;;;;;24.20;47.68;94497.31;5074124;28;20232;-84
2023/09/19 11:23:22;;;;;;;1.10;1.00;;;;;;;24.33;48.36;94528.16;5074556;28;20232;-84
2023/09/19 11:25:51;;;;;;;1.10;1.00;;;;;;;24.25;48.23;94531.44;5029934;28;20312;-84
2023/09/19 11:28:32;;;;;;;2.80;1.20;;;;;;;24.20;48.19;94528.88;5078729;28;20311;-84
2023/09/19 11:30:59;;;;;;;0.90;0.90;;;;;;;24.32;48.24;94510.81;5075810;28;20220;-84
2023/09/19 11:33:31;;;;;;;1.13;1.02;;;;;;;24.65;47.89;94524.72;5073750;28;20235;-84
2023/09/19 11:36:08;;;;;;;1.13;1.00;;;;;;;24.60;47.35;94477.44;5072091;28;20261;-85
2023/09/19 11:39:08;;;;;;;1.77;1.05;;;;;;;24.36;47.00;94446.81;5073009;28;20290;-84
2023/09/19 11:41:39;;;;;;;2.20;1.98;;;;;;;24.13;47.56;94483.75;5073265;28;20235;-84
2023/09/19 11:44:38;;;;;;;1.27;1.13;;;;;;;24.18;47.65;94496.81;5072693;28;20197;-83
2023/09/19 11:47:07;;;;;;;2.20;1.05;;;;;;;23.96;47.81;94498.19;5073880;28;20295;-84
2023/09/19 11:49:33;;;;;;;1.17;0.90;;;;;;;23.87;48.05;94520.94;5072192;28;20209;-84